sensor_id;sensor_type;location;lat;lon;timestamp;P1;durP1;ratioP1;P2;durP2;ratioP2
36501;SDS011;25393;46.108;3.390;2023-04-29T00:00:42;8.13;;;5.43;;
36501;SDS011;25393;46.108;3.390;2023-04-29T00:03:08;6.03;;;5.63;;
36501;SDS011;25393;46.108;3.390;2023-04-29T00:05:35;7.65;;;5.10;;
36501;SDS011;25393;46.108;3.390;2023-04-29T00:08:02;5.90;;;5.30;;
36501;SDS011;25393;46.108;3.390;2023-04-29T00:10:29;5.10;;;4.70;;
36501;SDS011;25393;46.108;3.390;2023-04-29T00:12:56;5.88;;;5.18;;
36501;SDS011;25393;46.108;3.390;2023-04-29T00:15:24;6.82;;;5.30;;
36501;SDS011;25393;46.108;3.390;2023-04-29T00:17:50;5.82;;;5.32;;
36501;SDS011;25393;46.108;3.390;2023-04-29T00:20:17;5.40;;;5.00;;
36501;SDS011;25393;46.108;3.390;2023-04-29T00:22:43;6.13;;;4.85;;
36501;SDS011;25393;46.108;3.390;2023-04-29T00:25:10;5.25;;;4.78;;
36501;SDS011;25393;46.108;3.390;2023-04-29T00:27:37;5.93;;;4.80;;
36501;SDS011;25393;46.108;3.390;2023-04-29T00:30:05;7.32;;;5.00;;
36501;SDS011;25393;46.108;3.390;2023-04-29T00:32:33;6.00;;;5.50;;
36501;SDS011;25393;46.108;3.390;2023-04-29T00:35:00;5.70;;;5.30;;
36501;SDS011;25393;46.108;3.390;2023-04-29T00:37:26;5.95;;;5.45;;
36501;SDS011;25393;46.108;3.390;2023-04-29T00:39:53;6.40;;;5.80;;
36501;SDS011;25393;46.108;3.390;2023-04-29T00:42:19;6.93;;;5.75;;
36501;SDS011;25393;46.108;3.390;2023-04-29T00:44:46;6.45;;;5.35;;
36501;SDS011;25393;46.108;3.390;2023-04-29T00:47:13;8.15;;;5.60;;
36501;SDS011;25393;46.108;3.390;2023-04-29T00:49:39;6.60;;;6.00;;
36501;SDS011;25393;46.108;3.390;2023-04-29T00:52:06;5.50;;;5.20;;
36501;SDS011;25393;46.108;3.390;2023-04-29T00:54:33;8.20;;;6.18;;
36501;SDS011;25393;46.108;3.390;2023-04-29T00:57:00;9.18;;;5.40;;
36501;SDS011;25393;46.108;3.390;2023-04-29T00:59:29;5.72;;;5.32;;
36501;SDS011;25393;46.108;3.390;2023-04-29T01:02:03;8.50;;;5.95;;
36501;SDS011;25393;46.108;3.390;2023-04-29T01:04:30;6.55;;;5.95;;
36501;SDS011;25393;46.108;3.390;2023-04-29T01:07:16;5.78;;;5.13;;
36501;SDS011;25393;46.108;3.390;2023-04-29T01:09:54;8.60;;;5.43;;
36501;SDS011;25393;46.108;3.390;2023-04-29T01:12:35;6.05;;;5.50;;
36501;SDS011;25393;46.108;3.390;2023-04-29T01:17:47;6.28;;;5.00;;
36501;SDS011;25393;46.108;3.390;2023-04-29T01:20:17;5.93;;;5.43;;
36501;SDS011;25393;46.108;3.390;2023-04-29T01:22:44;6.35;;;5.75;;
36501;SDS011;25393;46.108;3.390;2023-04-29T01:25:11;5.75;;;5.35;;
36501;SDS011;25393;46.108;3.390;2023-04-29T01:36:46;6.60;;;6.10;;
36501;SDS011;25393;46.108;3.390;2023-04-29T01:39:19;7.20;;;5.78;;
36501;SDS011;25393;46.108;3.390;2023-04-29T01:42:14;6.72;;;6.00;;
36501;SDS011;25393;46.108;3.390;2023-04-29T01:45:02;5.78;;;5.28;;
36501;SDS011;25393;46.108;3.390;2023-04-29T01:47:36;5.88;;;5.47;;
36501;SDS011;25393;46.108;3.390;2023-04-29T01:50:07;5.88;;;5.38;;
36501;SDS011;25393;46.108;3.390;2023-04-29T01:52:36;5.45;;;5.05;;
36501;SDS011;25393;46.108;3.390;2023-04-29T01:55:07;5.75;;;5.35;;
36501;SDS011;25393;46.108;3.390;2023-04-29T01:57:34;5.75;;;5.35;;
36501;SDS011;25393;46.108;3.390;2023-04-29T02:00:00;5.93;;;5.53;;
36501;SDS011;25393;46.108;3.390;2023-04-29T02:02:27;5.47;;;5.00;;
36501;SDS011;25393;46.108;3.390;2023-04-29T02:04:54;6.28;;;5.70;;
36501;SDS011;25393;46.108;3.390;2023-04-29T02:07:21;5.40;;;5.00;;
36501;SDS011;25393;46.108;3.390;2023-04-29T02:09:47;5.93;;;5.45;;
36501;SDS011;25393;46.108;3.390;2023-04-29T02:12:14;6.90;;;5.47;;
36501;SDS011;25393;46.108;3.390;2023-04-29T02:14:40;6.07;;;5.47;;
36501;SDS011;25393;46.108;3.390;2023-04-29T02:17:07;5.88;;;5.47;;
36501;SDS011;25393;46.108;3.390;2023-04-29T02:19:36;5.55;;;5.05;;
36501;SDS011;25393;46.108;3.390;2023-04-29T02:22:03;7.20;;;5.60;;
36501;SDS011;25393;46.108;3.390;2023-04-29T02:24:31;6.10;;;5.50;;
36501;SDS011;25393;46.108;3.390;2023-04-29T02:26:58;5.95;;;5.32;;
36501;SDS011;25393;46.108;3.390;2023-04-29T02:29:24;5.47;;;5.07;;
36501;SDS011;25393;46.108;3.390;2023-04-29T02:31:52;5.95;;;5.45;;
36501;SDS011;25393;46.108;3.390;2023-04-29T02:34:18;10.65;;;5.80;;
36501;SDS011;25393;46.108;3.390;2023-04-29T02:36:45;5.65;;;5.25;;
36501;SDS011;25393;46.108;3.390;2023-04-29T02:39:11;6.05;;;5.28;;
36501;SDS011;25393;46.108;3.390;2023-04-29T02:41:38;5.82;;;5.40;;
36501;SDS011;25393;46.108;3.390;2023-04-29T02:44:04;5.90;;;5.40;;
36501;SDS011;25393;46.108;3.390;2023-04-29T02:46:35;8.68;;;5.40;;
36501;SDS011;25393;46.108;3.390;2023-04-29T02:49:08;5.65;;;5.15;;
36501;SDS011;25393;46.108;3.390;2023-04-29T02:51:35;5.65;;;5.22;;
36501;SDS011;25393;46.108;3.390;2023-04-29T02:54:03;5.57;;;5.18;;
36501;SDS011;25393;46.108;3.390;2023-04-29T02:56:30;5.60;;;5.20;;
36501;SDS011;25393;46.108;3.390;2023-04-29T02:58:57;5.72;;;5.18;;
36501;SDS011;25393;46.108;3.390;2023-04-29T03:01:24;6.85;;;6.05;;
36501;SDS011;25393;46.108;3.390;2023-04-29T03:03:50;6.28;;;5.72;;
36501;SDS011;25393;46.108;3.390;2023-04-29T03:06:17;6.05;;;5.60;;
36501;SDS011;25393;46.108;3.390;2023-04-29T03:08:46;6.47;;;5.88;;
36501;SDS011;25393;46.108;3.390;2023-04-29T03:11:13;6.93;;;5.53;;
36501;SDS011;25393;46.108;3.390;2023-04-29T03:13:39;5.90;;;5.40;;
36501;SDS011;25393;46.108;3.390;2023-04-29T03:16:06;10.30;;;5.68;;
36501;SDS011;25393;46.108;3.390;2023-04-29T03:18:33;6.10;;;5.50;;
36501;SDS011;25393;46.108;3.390;2023-04-29T03:20:59;6.68;;;5.50;;
36501;SDS011;25393;46.108;3.390;2023-04-29T03:23:25;6.97;;;6.30;;
36501;SDS011;25393;46.108;3.390;2023-04-29T03:25:53;6.55;;;5.82;;
36501;SDS011;25393;46.108;3.390;2023-04-29T03:28:21;5.60;;;5.20;;
36501;SDS011;25393;46.108;3.390;2023-04-29T03:30:47;6.07;;;5.57;;
36501;SDS011;25393;46.108;3.390;2023-04-29T03:33:14;5.57;;;5.18;;
36501;SDS011;25393;46.108;3.390;2023-04-29T03:35:40;5.60;;;5.20;;
36501;SDS011;25393;46.108;3.390;2023-04-29T03:38:07;6.30;;;5.70;;
36501;SDS011;25393;46.108;3.390;2023-04-29T03:40:35;7.32;;;5.88;;
36501;SDS011;25393;46.108;3.390;2023-04-29T03:43:02;6.15;;;5.43;;
36501;SDS011;25393;46.108;3.390;2023-04-29T03:45:29;5.63;;;5.22;;
36501;SDS011;25393;46.108;3.390;2023-04-29T03:47:55;6.07;;;5.57;;
36501;SDS011;25393;46.108;3.390;2023-04-29T03:50:22;5.45;;;5.05;;
36501;SDS011;25393;46.108;3.390;2023-04-29T03:52:48;5.30;;;4.90;;
36501;SDS011;25393;46.108;3.390;2023-04-29T03:55:15;5.00;;;4.70;;
36501;SDS011;25393;46.108;3.390;2023-04-29T03:57:42;5.75;;;5.25;;
36501;SDS011;25393;46.108;3.390;2023-04-29T04:00:09;5.07;;;4.78;;
36501;SDS011;25393;46.108;3.390;2023-04-29T04:02:40;5.30;;;4.90;;
36501;SDS011;25393;46.108;3.390;2023-04-29T04:05:07;5.50;;;5.10;;
36501;SDS011;25393;46.108;3.390;2023-04-29T04:07:34;5.93;;;5.50;;
36501;SDS011;25393;46.108;3.390;2023-04-29T04:10:00;5.90;;;5.40;;
36501;SDS011;25393;46.108;3.390;2023-04-29T04:12:27;5.60;;;5.20;;
36501;SDS011;25393;46.108;3.390;2023-04-29T04:14:53;5.97;;;5.32;;
36501;SDS011;25393;46.108;3.390;2023-04-29T04:17:20;5.50;;;5.13;;
36501;SDS011;25393;46.108;3.390;2023-04-29T04:19:47;5.70;;;5.20;;
36501;SDS011;25393;46.108;3.390;2023-04-29T04:22:13;5.70;;;5.18;;
36501;SDS011;25393;46.108;3.390;2023-04-29T04:24:41;6.03;;;5.57;;
36501;SDS011;25393;46.108;3.390;2023-04-29T04:27:08;7.43;;;5.15;;
36501;SDS011;25393;46.108;3.390;2023-04-29T04:29:34;6.18;;;5.68;;
36501;SDS011;25393;46.108;3.390;2023-04-29T04:32:01;5.43;;;5.03;;
36501;SDS011;25393;46.108;3.390;2023-04-29T04:34:27;5.93;;;5.53;;
36501;SDS011;25393;46.108;3.390;2023-04-29T04:36:54;5.82;;;5.43;;
36501;SDS011;25393;46.108;3.390;2023-04-29T04:39:21;6.05;;;5.55;;
36501;SDS011;25393;46.108;3.390;2023-04-29T04:41:47;5.38;;;4.97;;
36501;SDS011;25393;46.108;3.390;2023-04-29T04:44:14;5.40;;;5.10;;
36501;SDS011;25393;46.108;3.390;2023-04-29T04:46:40;5.55;;;5.15;;
36501;SDS011;25393;46.108;3.390;2023-04-29T04:49:09;5.50;;;5.15;;
36501;SDS011;25393;46.108;3.390;2023-04-29T04:51:36;5.97;;;5.20;;
36501;SDS011;25393;46.108;3.390;2023-04-29T04:54:03;6.13;;;5.63;;
36501;SDS011;25393;46.108;3.390;2023-04-29T04:56:29;6.45;;;5.85;;
36501;SDS011;25393;46.108;3.390;2023-04-29T04:58:56;6.53;;;6.03;;
36501;SDS011;25393;46.108;3.390;2023-04-29T05:01:22;6.00;;;5.50;;
36501;SDS011;25393;46.108;3.390;2023-04-29T05:03:49;9.70;;;5.30;;
36501;SDS011;25393;46.108;3.390;2023-04-29T05:06:16;5.80;;;5.38;;
36501;SDS011;25393;46.108;3.390;2023-04-29T05:08:45;5.72;;;5.22;;
36501;SDS011;25393;46.108;3.390;2023-04-29T05:11:16;5.82;;;5.32;;
36501;SDS011;25393;46.108;3.390;2023-04-29T05:13:46;6.53;;;5.93;;
36501;SDS011;25393;46.108;3.390;2023-04-29T05:16:16;6.65;;;6.05;;
36501;SDS011;25393;46.108;3.390;2023-04-29T05:18:44;5.38;;;4.97;;
36501;SDS011;25393;46.108;3.390;2023-04-29T05:21:11;6.97;;;5.32;;
36501;SDS011;25393;46.108;3.390;2023-04-29T05:23:45;6.63;;;5.90;;
36501;SDS011;25393;46.108;3.390;2023-04-29T05:26:15;5.93;;;5.53;;
36501;SDS011;25393;46.108;3.390;2023-04-29T05:28:41;5.75;;;5.35;;
36501;SDS011;25393;46.108;3.390;2023-04-29T05:31:10;6.18;;;5.07;;
36501;SDS011;25393;46.108;3.390;2023-04-29T05:33:37;5.63;;;4.90;;
36501;SDS011;25393;46.108;3.390;2023-04-29T05:36:03;5.60;;;5.20;;
36501;SDS011;25393;46.108;3.390;2023-04-29T05:38:31;6.70;;;5.63;;
36501;SDS011;25393;46.108;3.390;2023-04-29T05:40:58;6.15;;;5.55;;
36501;SDS011;25393;46.108;3.390;2023-04-29T05:43:25;9.50;;;5.20;;
36501;SDS011;25393;46.108;3.390;2023-04-29T05:45:52;5.80;;;5.30;;
36501;SDS011;25393;46.108;3.390;2023-04-29T05:48:19;6.65;;;6.05;;
36501;SDS011;25393;46.108;3.390;2023-04-29T05:50:45;6.35;;;5.85;;
36501;SDS011;25393;46.108;3.390;2023-04-29T05:53:13;6.55;;;5.80;;
36501;SDS011;25393;46.108;3.390;2023-04-29T05:55:40;6.03;;;5.60;;
36501;SDS011;25393;46.108;3.390;2023-04-29T05:58:10;6.40;;;5.70;;
36501;SDS011;25393;46.108;3.390;2023-04-29T06:00:38;5.80;;;5.38;;
36501;SDS011;25393;46.108;3.390;2023-04-29T06:03:05;7.38;;;6.68;;
36501;SDS011;25393;46.108;3.390;2023-04-29T06:05:32;6.15;;;5.65;;
36501;SDS011;25393;46.108;3.390;2023-04-29T06:08:00;6.13;;;5.63;;
36501;SDS011;25393;46.108;3.390;2023-04-29T06:10:27;6.32;;;5.75;;
36501;SDS011;25393;46.108;3.390;2023-04-29T06:12:54;6.65;;;6.07;;
36501;SDS011;25393;46.108;3.390;2023-04-29T06:15:20;6.63;;;6.00;;
36501;SDS011;25393;46.108;3.390;2023-04-29T06:17:47;6.28;;;5.75;;
36501;SDS011;25393;46.108;3.390;2023-04-29T06:20:16;6.30;;;5.80;;
36501;SDS011;25393;46.108;3.390;2023-04-29T06:22:46;6.10;;;5.60;;
36501;SDS011;25393;46.108;3.390;2023-04-29T06:25:14;6.07;;;5.47;;
36501;SDS011;25393;46.108;3.390;2023-04-29T06:27:41;6.25;;;5.75;;
36501;SDS011;25393;46.108;3.390;2023-04-29T06:30:10;5.82;;;5.32;;
36501;SDS011;25393;46.108;3.390;2023-04-29T06:32:37;6.05;;;5.45;;
36501;SDS011;25393;46.108;3.390;2023-04-29T06:35:04;6.00;;;5.60;;
36501;SDS011;25393;46.108;3.390;2023-04-29T06:37:31;6.00;;;5.50;;
36501;SDS011;25393;46.108;3.390;2023-04-29T06:40:00;6.03;;;5.53;;
36501;SDS011;25393;46.108;3.390;2023-04-29T06:42:26;6.38;;;5.85;;
36501;SDS011;25393;46.108;3.390;2023-04-29T06:44:53;6.90;;;5.93;;
36501;SDS011;25393;46.108;3.390;2023-04-29T06:47:20;7.80;;;6.25;;
36501;SDS011;25393;46.108;3.390;2023-04-29T06:49:46;7.18;;;6.22;;
36501;SDS011;25393;46.108;3.390;2023-04-29T06:52:14;6.15;;;5.70;;
36501;SDS011;25393;46.108;3.390;2023-04-29T06:54:40;6.40;;;5.80;;
36501;SDS011;25393;46.108;3.390;2023-04-29T06:57:09;7.15;;;6.20;;
36501;SDS011;25393;46.108;3.390;2023-04-29T06:59:35;8.75;;;6.35;;
36501;SDS011;25393;46.108;3.390;2023-04-29T07:02:02;7.82;;;6.20;;
36501;SDS011;25393;46.108;3.390;2023-04-29T07:04:28;8.18;;;6.90;;
36501;SDS011;25393;46.108;3.390;2023-04-29T07:06:55;7.32;;;6.50;;
36501;SDS011;25393;46.108;3.390;2023-04-29T07:09:22;6.75;;;6.07;;
36501;SDS011;25393;46.108;3.390;2023-04-29T07:11:48;10.32;;;6.72;;
36501;SDS011;25393;46.108;3.390;2023-04-29T07:14:15;7.72;;;7.03;;
36501;SDS011;25393;46.108;3.390;2023-04-29T07:16:41;7.90;;;6.47;;
36501;SDS011;25393;46.108;3.390;2023-04-29T07:19:10;7.80;;;6.93;;
36501;SDS011;25393;46.108;3.390;2023-04-29T07:21:37;9.23;;;7.78;;
36501;SDS011;25393;46.108;3.390;2023-04-29T07:24:03;8.00;;;7.22;;
36501;SDS011;25393;46.108;3.390;2023-04-29T07:26:30;10.95;;;7.35;;
36501;SDS011;25393;46.108;3.390;2023-04-29T07:28:57;7.85;;;7.07;;
36501;SDS011;25393;46.108;3.390;2023-04-29T07:31:23;7.47;;;6.88;;
36501;SDS011;25393;46.108;3.390;2023-04-29T07:33:50;7.50;;;6.63;;
36501;SDS011;25393;46.108;3.390;2023-04-29T07:36:16;7.82;;;7.13;;
36501;SDS011;25393;46.108;3.390;2023-04-29T07:38:43;7.65;;;6.95;;
36501;SDS011;25393;46.108;3.390;2023-04-29T07:41:12;7.20;;;6.55;;
36501;SDS011;25393;46.108;3.390;2023-04-29T07:43:42;7.72;;;7.13;;
36501;SDS011;25393;46.108;3.390;2023-04-29T07:46:11;7.35;;;6.75;;
36501;SDS011;25393;46.108;3.390;2023-04-29T07:48:41;7.95;;;7.25;;
36501;SDS011;25393;46.108;3.390;2023-04-29T07:51:16;8.50;;;7.72;;
36501;SDS011;25393;46.108;3.390;2023-04-29T07:53:45;9.20;;;7.32;;
36501;SDS011;25393;46.108;3.390;2023-04-29T07:56:15;8.85;;;8.05;;
36501;SDS011;25393;46.108;3.390;2023-04-29T07:58:42;15.65;;;7.68;;
36501;SDS011;25393;46.108;3.390;2023-04-29T08:01:09;7.05;;;6.45;;
36501;SDS011;25393;46.108;3.390;2023-04-29T08:03:37;9.73;;;6.68;;
36501;SDS011;25393;46.108;3.390;2023-04-29T08:06:07;8.13;;;7.40;;
36501;SDS011;25393;46.108;3.390;2023-04-29T08:08:34;8.40;;;7.50;;
36501;SDS011;25393;46.108;3.390;2023-04-29T08:11:00;9.23;;;6.63;;
36501;SDS011;25393;46.108;3.390;2023-04-29T08:13:27;8.07;;;7.28;;
36501;SDS011;25393;46.108;3.390;2023-04-29T08:15:53;7.18;;;6.65;;
36501;SDS011;25393;46.108;3.390;2023-04-29T08:18:20;8.48;;;7.78;;
36501;SDS011;25393;46.108;3.390;2023-04-29T08:20:47;8.57;;;7.80;;
36501;SDS011;25393;46.108;3.390;2023-04-29T08:23:14;8.52;;;7.60;;
36501;SDS011;25393;46.108;3.390;2023-04-29T08:25:41;8.18;;;7.03;;
36501;SDS011;25393;46.108;3.390;2023-04-29T08:28:15;7.65;;;7.05;;
36501;SDS011;25393;46.108;3.390;2023-04-29T08:30:45;7.50;;;6.90;;
36501;SDS011;25393;46.108;3.390;2023-04-29T08:33:12;7.50;;;6.78;;
36501;SDS011;25393;46.108;3.390;2023-04-29T08:35:42;7.68;;;6.63;;
36501;SDS011;25393;46.108;3.390;2023-04-29T08:38:11;7.57;;;6.53;;
36501;SDS011;25393;46.108;3.390;2023-04-29T08:40:42;7.55;;;6.70;;
36501;SDS011;25393;46.108;3.390;2023-04-29T08:43:15;7.40;;;6.50;;
36501;SDS011;25393;46.108;3.390;2023-04-29T08:45:43;7.00;;;6.40;;
36501;SDS011;25393;46.108;3.390;2023-04-29T08:48:16;6.15;;;5.65;;
36501;SDS011;25393;46.108;3.390;2023-04-29T08:50:44;7.13;;;6.40;;
36501;SDS011;25393;46.108;3.390;2023-04-29T08:53:12;6.57;;;5.95;;
36501;SDS011;25393;46.108;3.390;2023-04-29T08:55:41;6.75;;;6.13;;
36501;SDS011;25393;46.108;3.390;2023-04-29T08:58:15;6.43;;;5.80;;
36501;SDS011;25393;46.108;3.390;2023-04-29T09:00:43;8.23;;;6.10;;
36501;SDS011;25393;46.108;3.390;2023-04-29T09:05:47;8.30;;;6.30;;
36501;SDS011;25393;46.108;3.390;2023-04-29T09:08:15;5.47;;;5.07;;
36501;SDS011;25393;46.108;3.390;2023-04-29T09:10:43;7.00;;;5.57;;
36501;SDS011;25393;46.108;3.390;2023-04-29T09:13:21;6.30;;;5.70;;
36501;SDS011;25393;46.108;3.390;2023-04-29T09:15:52;6.05;;;5.00;;
36501;SDS011;25393;46.108;3.390;2023-04-29T09:21:25;5.50;;;5.10;;
36501;SDS011;25393;46.108;3.390;2023-04-29T09:23:57;5.60;;;5.20;;
36501;SDS011;25393;46.108;3.390;2023-04-29T09:26:34;5.45;;;5.00;;
36501;SDS011;25393;46.108;3.390;2023-04-29T09:29:07;5.65;;;4.93;;
36501;SDS011;25393;46.108;3.390;2023-04-29T09:31:36;4.82;;;4.43;;
36501;SDS011;25393;46.108;3.390;2023-04-29T09:34:04;4.57;;;4.18;;
36501;SDS011;25393;46.108;3.390;2023-04-29T09:36:35;6.38;;;4.53;;
36501;SDS011;25393;46.108;3.390;2023-04-29T09:39:16;5.55;;;4.35;;
36501;SDS011;25393;46.108;3.390;2023-04-29T09:44:20;4.68;;;4.28;;
36501;SDS011;25393;46.108;3.390;2023-04-29T09:47:02;4.72;;;4.43;;
36501;SDS011;25393;46.108;3.390;2023-04-29T09:49:39;4.38;;;3.83;;
36501;SDS011;25393;46.108;3.390;2023-04-29T09:52:20;4.50;;;4.20;;
36501;SDS011;25393;46.108;3.390;2023-04-29T09:54:47;14.27;;;5.30;;
36501;SDS011;25393;46.108;3.390;2023-04-29T09:57:16;4.65;;;4.28;;
36501;SDS011;25393;46.108;3.390;2023-04-29T09:59:44;4.80;;;4.00;;
36501;SDS011;25393;46.108;3.390;2023-04-29T10:04:44;4.97;;;3.90;;
36501;SDS011;25393;46.108;3.390;2023-04-29T10:07:19;4.47;;;3.70;;
36501;SDS011;25393;46.108;3.390;2023-04-29T10:09:47;4.45;;;4.05;;
36501;SDS011;25393;46.108;3.390;2023-04-29T10:12:20;4.75;;;4.03;;
36501;SDS011;25393;46.108;3.390;2023-04-29T10:14:47;3.42;;;3.20;;
36501;SDS011;25393;46.108;3.390;2023-04-29T10:17:27;3.83;;;3.08;;
36501;SDS011;25393;46.108;3.390;2023-04-29T10:20:03;4.18;;;3.30;;
36501;SDS011;25393;46.108;3.390;2023-04-29T10:22:47;3.88;;;3.58;;
36501;SDS011;25393;46.108;3.390;2023-04-29T10:25:15;4.18;;;3.55;;
36501;SDS011;25393;46.108;3.390;2023-04-29T10:27:44;3.42;;;3.22;;
36501;SDS011;25393;46.108;3.390;2023-04-29T10:31:01;3.92;;;3.63;;
36501;SDS011;25393;46.108;3.390;2023-04-29T10:33:30;4.70;;;3.97;;
36501;SDS011;25393;46.108;3.390;2023-04-29T10:36:01;4.47;;;3.83;;
36501;SDS011;25393;46.108;3.390;2023-04-29T10:38:29;4.20;;;3.85;;
36501;SDS011;25393;46.108;3.390;2023-04-29T10:41:09;4.25;;;3.95;;
36501;SDS011;25393;46.108;3.390;2023-04-29T10:43:42;4.68;;;3.92;;
36501;SDS011;25393;46.108;3.390;2023-04-29T10:48:46;4.15;;;3.75;;
36501;SDS011;25393;46.108;3.390;2023-04-29T10:51:32;4.70;;;4.07;;
36501;SDS011;25393;46.108;3.390;2023-04-29T10:54:15;4.63;;;3.80;;
36501;SDS011;25393;46.108;3.390;2023-04-29T10:56:48;6.45;;;4.28;;
36501;SDS011;25393;46.108;3.390;2023-04-29T10:59:17;4.32;;;3.97;;
36501;SDS011;25393;46.108;3.390;2023-04-29T11:01:47;5.30;;;4.03;;
36501;SDS011;25393;46.108;3.390;2023-04-29T11:04:15;4.78;;;4.38;;
36501;SDS011;25393;46.108;3.390;2023-04-29T11:06:46;4.25;;;3.78;;
36501;SDS011;25393;46.108;3.390;2023-04-29T11:09:18;5.10;;;3.90;;
36501;SDS011;25393;46.108;3.390;2023-04-29T11:11:56;4.68;;;4.15;;
36501;SDS011;25393;46.108;3.390;2023-04-29T11:14:28;5.32;;;3.80;;
36501;SDS011;25393;46.108;3.390;2023-04-29T11:16:57;4.25;;;3.95;;
36501;SDS011;25393;46.108;3.390;2023-04-29T11:19:29;3.40;;;3.20;;
36501;SDS011;25393;46.108;3.390;2023-04-29T11:22:07;3.78;;;3.47;;
36501;SDS011;25393;46.108;3.390;2023-04-29T11:27:20;3.97;;;3.58;;
36501;SDS011;25393;46.108;3.390;2023-04-29T11:29:51;4.00;;;3.70;;
36501;SDS011;25393;46.108;3.390;2023-04-29T11:32:27;4.38;;;3.97;;
36501;SDS011;25393;46.108;3.390;2023-04-29T11:35:06;7.40;;;3.60;;
36501;SDS011;25393;46.108;3.390;2023-04-29T11:37:35;3.42;;;3.25;;
36501;SDS011;25393;46.108;3.390;2023-04-29T11:40:04;3.63;;;3.42;;
36501;SDS011;25393;46.108;3.390;2023-04-29T11:42:33;5.60;;;3.42;;
36501;SDS011;25393;46.108;3.390;2023-04-29T11:45:01;3.50;;;3.30;;
36501;SDS011;25393;46.108;3.390;2023-04-29T11:47:28;3.55;;;3.25;;
36501;SDS011;25393;46.108;3.390;2023-04-29T11:50:02;3.25;;;3.05;;
36501;SDS011;25393;46.108;3.390;2023-04-29T11:52:37;3.70;;;3.40;;
36501;SDS011;25393;46.108;3.390;2023-04-29T11:55:07;3.25;;;3.05;;
36501;SDS011;25393;46.108;3.390;2023-04-29T11:57:35;3.50;;;2.92;;
36501;SDS011;25393;46.108;3.390;2023-04-29T12:00:01;4.43;;;3.38;;
36501;SDS011;25393;46.108;3.390;2023-04-29T12:02:32;4.00;;;3.58;;
36501;SDS011;25393;46.108;3.390;2023-04-29T12:05:00;5.60;;;3.22;;
36501;SDS011;25393;46.108;3.390;2023-04-29T12:07:33;3.15;;;2.95;;
36501;SDS011;25393;46.108;3.390;2023-04-29T12:10:01;3.17;;;2.72;;
36501;SDS011;25393;46.108;3.390;2023-04-29T12:12:28;3.00;;;2.80;;
36501;SDS011;25393;46.108;3.390;2023-04-29T12:15:00;3.10;;;2.90;;
36501;SDS011;25393;46.108;3.390;2023-04-29T12:17:28;3.47;;;3.22;;
36501;SDS011;25393;46.108;3.390;2023-04-29T12:19:55;3.80;;;3.38;;
36501;SDS011;25393;46.108;3.390;2023-04-29T12:22:22;5.25;;;3.17;;
36501;SDS011;25393;46.108;3.390;2023-04-29T12:24:55;3.38;;;3.17;;
36501;SDS011;25393;46.108;3.390;2023-04-29T12:27:22;8.35;;;3.92;;
36501;SDS011;25393;46.108;3.390;2023-04-29T12:29:50;5.70;;;3.78;;
36501;SDS011;25393;46.108;3.390;2023-04-29T12:32:20;3.35;;;3.15;;
36501;SDS011;25393;46.108;3.390;2023-04-29T12:34:49;3.28;;;3.08;;
36501;SDS011;25393;46.108;3.390;2023-04-29T12:37:17;3.20;;;3.00;;
36501;SDS011;25393;46.108;3.390;2023-04-29T12:39:48;3.97;;;3.30;;
36501;SDS011;25393;46.108;3.390;2023-04-29T12:42:15;3.97;;;3.50;;
36501;SDS011;25393;46.108;3.390;2023-04-29T12:44:45;3.78;;;3.47;;
36501;SDS011;25393;46.108;3.390;2023-04-29T12:47:15;3.30;;;3.10;;
36501;SDS011;25393;46.108;3.390;2023-04-29T12:49:45;3.42;;;3.13;;
36501;SDS011;25393;46.108;3.390;2023-04-29T12:52:13;3.20;;;3.00;;
36501;SDS011;25393;46.108;3.390;2023-04-29T12:54:45;3.38;;;3.10;;
36501;SDS011;25393;46.108;3.390;2023-04-29T12:57:12;3.55;;;3.25;;
36501;SDS011;25393;46.108;3.390;2023-04-29T12:59:41;3.95;;;3.30;;
36501;SDS011;25393;46.108;3.390;2023-04-29T13:02:11;3.22;;;3.03;;
36501;SDS011;25393;46.108;3.390;2023-04-29T13:04:41;3.10;;;2.90;;
36501;SDS011;25393;46.108;3.390;2023-04-29T13:07:11;3.17;;;2.97;;
36501;SDS011;25393;46.108;3.390;2023-04-29T13:09:40;3.42;;;3.13;;
36501;SDS011;25393;46.108;3.390;2023-04-29T13:12:07;3.25;;;3.05;;
36501;SDS011;25393;46.108;3.390;2023-04-29T13:14:34;3.53;;;3.25;;
36501;SDS011;25393;46.108;3.390;2023-04-29T13:17:01;3.33;;;3.13;;
36501;SDS011;25393;46.108;3.390;2023-04-29T13:19:29;3.53;;;3.33;;
36501;SDS011;25393;46.108;3.390;2023-04-29T13:22:16;3.72;;;3.42;;
36501;SDS011;25393;46.108;3.390;2023-04-29T13:24:45;3.20;;;3.00;;
36501;SDS011;25393;46.108;3.390;2023-04-29T13:27:12;4.80;;;3.30;;
36501;SDS011;25393;46.108;3.390;2023-04-29T13:29:45;3.15;;;3.05;;
36501;SDS011;25393;46.108;3.390;2023-04-29T13:32:12;3.28;;;3.00;;
36501;SDS011;25393;46.108;3.390;2023-04-29T13:34:47;3.15;;;2.92;;
36501;SDS011;25393;46.108;3.390;2023-04-29T13:37:14;3.40;;;3.13;;
36501;SDS011;25393;46.108;3.390;2023-04-29T13:39:46;3.28;;;3.08;;
36501;SDS011;25393;46.108;3.390;2023-04-29T13:42:16;5.60;;;3.15;;
36501;SDS011;25393;46.108;3.390;2023-04-29T13:44:46;3.63;;;3.33;;
36501;SDS011;25393;46.108;3.390;2023-04-29T13:47:25;3.63;;;3.42;;
36501;SDS011;25393;46.108;3.390;2023-04-29T13:49:56;3.90;;;3.50;;
36501;SDS011;25393;46.108;3.390;2023-04-29T13:52:43;3.67;;;3.40;;
36501;SDS011;25393;46.108;3.390;2023-04-29T13:55:18;3.75;;;3.55;;
36501;SDS011;25393;46.108;3.390;2023-04-29T13:57:49;3.60;;;3.30;;
36501;SDS011;25393;46.108;3.390;2023-04-29T14:00:35;3.88;;;3.20;;
36501;SDS011;25393;46.108;3.390;2023-04-29T14:03:24;3.55;;;3.35;;
36501;SDS011;25393;46.108;3.390;2023-04-29T14:05:50;3.13;;;2.92;;
36501;SDS011;25393;46.108;3.390;2023-04-29T14:08:17;7.90;;;6.38;;
36501;SDS011;25393;46.108;3.390;2023-04-29T14:10:47;6.60;;;5.93;;
36501;SDS011;25393;46.108;3.390;2023-04-29T14:13:17;7.05;;;6.35;;
36501;SDS011;25393;46.108;3.390;2023-04-29T14:15:44;8.07;;;7.07;;
36501;SDS011;25393;46.108;3.390;2023-04-29T14:18:11;7.50;;;5.28;;
36501;SDS011;25393;46.108;3.390;2023-04-29T14:20:38;9.18;;;6.32;;
36501;SDS011;25393;46.108;3.390;2023-04-29T14:23:04;5.85;;;4.20;;
36501;SDS011;25393;46.108;3.390;2023-04-29T14:25:31;5.35;;;3.72;;
36501;SDS011;25393;46.108;3.390;2023-04-29T14:27:59;7.53;;;5.13;;
36501;SDS011;25393;46.108;3.390;2023-04-29T14:30:25;3.45;;;3.15;;
36501;SDS011;25393;46.108;3.390;2023-04-29T14:32:52;4.38;;;3.20;;
36501;SDS011;25393;46.108;3.390;2023-04-29T14:35:18;3.72;;;3.42;;
36501;SDS011;25393;46.108;3.390;2023-04-29T14:37:48;3.20;;;3.00;;
36501;SDS011;25393;46.108;3.390;2023-04-29T14:40:18;3.30;;;3.10;;
36501;SDS011;25393;46.108;3.390;2023-04-29T14:42:45;3.72;;;3.53;;
36501;SDS011;25393;46.108;3.390;2023-04-29T14:45:12;4.50;;;4.10;;
36501;SDS011;25393;46.108;3.390;2023-04-29T14:47:39;3.30;;;3.00;;
36501;SDS011;25393;46.108;3.390;2023-04-29T14:50:06;2.95;;;2.75;;
36501;SDS011;25393;46.108;3.390;2023-04-29T14:52:33;3.33;;;2.60;;
36501;SDS011;25393;46.108;3.390;2023-04-29T14:55:00;2.80;;;2.60;;
36501;SDS011;25393;46.108;3.390;2023-04-29T14:57:27;2.70;;;2.50;;
36501;SDS011;25393;46.108;3.390;2023-04-29T14:59:55;2.40;;;2.30;;
36501;SDS011;25393;46.108;3.390;2023-04-29T15:02:22;2.60;;;2.50;;
36501;SDS011;25393;46.108;3.390;2023-04-29T15:04:49;2.58;;;2.47;;
36501;SDS011;25393;46.108;3.390;2023-04-29T15:07:18;3.78;;;3.35;;
36501;SDS011;25393;46.108;3.390;2023-04-29T15:09:45;3.85;;;3.40;;
36501;SDS011;25393;46.108;3.390;2023-04-29T15:12:18;4.10;;;3.20;;
36501;SDS011;25393;46.108;3.390;2023-04-29T15:14:49;3.47;;;3.17;;
36501;SDS011;25393;46.108;3.390;2023-04-29T15:17:18;3.40;;;3.20;;
36501;SDS011;25393;46.108;3.390;2023-04-29T15:19:45;3.33;;;3.13;;
36501;SDS011;25393;46.108;3.390;2023-04-29T15:22:13;3.50;;;3.25;;
36501;SDS011;25393;46.108;3.390;2023-04-29T15:24:39;4.20;;;3.80;;
36501;SDS011;25393;46.108;3.390;2023-04-29T15:27:06;3.08;;;2.88;;